createdAt,value
2023-05-14T00:01:00.880Z,15.17
2023-05-14T00:03:27.506Z,15.13
2023-05-14T00:05:53.952Z,15.19
2023-05-14T00:08:20.482Z,15.20
2023-05-14T00:10:47.029Z,15.16
2023-05-14T00:13:13.507Z,15.14
2023-05-14T00:15:40.128Z,15.13
2023-05-14T00:18:07.116Z,15.15
2023-05-14T00:20:33.603Z,15.12
2023-05-14T00:23:00.288Z,15.08
2023-05-14T00:25:26.873Z,15.08
2023-05-14T00:27:53.311Z,15.04
2023-05-14T00:30:19.853Z,14.98
2023-05-14T00:32:46.339Z,14.93
2023-05-14T00:35:12.774Z,14.85
2023-05-14T00:37:39.201Z,14.83
2023-05-14T00:40:07.203Z,14.81
2023-05-14T00:42:33.748Z,14.81
2023-05-14T00:45:00.445Z,14.81
2023-05-14T00:47:27.180Z,14.78
2023-05-14T00:49:53.693Z,14.80
2023-05-14T00:52:20.460Z,14.77
2023-05-14T00:54:47.370Z,14.71
2023-05-14T00:57:13.918Z,14.67
2023-05-14T00:59:41.777Z,14.69
2023-05-14T01:02:08.292Z,14.69
2023-05-14T01:04:35.269Z,14.64
2023-05-14T01:07:04.574Z,14.57
2023-05-14T01:09:50.165Z,14.53
2023-05-14T01:12:26.116Z,14.43
2023-05-14T01:14:55.093Z,14.17
2023-05-14T01:17:22.947Z,14.37
2023-05-14T01:19:51.750Z,14.42
2023-05-14T01:22:18.215Z,14.32
2023-05-14T01:24:44.680Z,14.40
2023-05-14T01:27:10.971Z,14.40
2023-05-14T01:29:39.111Z,14.36
2023-05-14T01:32:06.966Z,14.34
2023-05-14T01:34:35.477Z,14.29
2023-05-14T01:37:02.047Z,14.21
2023-05-14T01:39:28.836Z,14.22
2023-05-14T01:41:55.640Z,14.21
2023-05-14T01:44:22.323Z,14.18
2023-05-14T01:46:48.730Z,14.18
2023-05-14T01:49:16.138Z,14.14
2023-05-14T01:51:42.579Z,14.13
2023-05-14T01:54:09.019Z,14.08
2023-05-14T01:56:35.684Z,14.04
2023-05-14T01:59:02.302Z,14.00
2023-05-14T02:01:28.818Z,14.01
2023-05-14T02:03:55.351Z,14.03
2023-05-14T02:06:21.868Z,14.00
2023-05-14T02:08:48.356Z,13.96
2023-05-14T02:11:14.808Z,13.91
2023-05-14T02:13:41.323Z,13.88
2023-05-14T02:16:07.968Z,13.85
2023-05-14T02:18:34.496Z,13.79
2023-05-14T02:21:00.960Z,13.73
2023-05-14T02:23:37.766Z,13.68
2023-05-14T02:26:09.544Z,13.68
2023-05-14T02:28:36.190Z,13.64
2023-05-14T02:31:02.684Z,13.61
2023-05-14T02:33:29.239Z,13.58
2023-05-14T02:35:55.724Z,13.60
2023-05-14T02:38:23.368Z,13.47
2023-05-14T02:40:49.821Z,13.56
2023-05-14T02:43:16.334Z,13.55
2023-05-14T02:45:43.006Z,13.52
2023-05-14T02:48:09.470Z,13.52
2023-05-14T02:50:35.899Z,13.48
2023-05-14T02:53:02.349Z,13.44
2023-05-14T02:55:28.828Z,13.45
2023-05-14T02:57:55.320Z,13.39
2023-05-14T03:00:21.950Z,13.34
2023-05-14T03:02:49.002Z,13.40
2023-05-14T03:05:15.834Z,13.27
2023-05-14T03:07:42.259Z,13.29
2023-05-14T03:10:09.179Z,13.29
2023-05-14T03:12:35.674Z,13.23
2023-05-14T03:15:02.165Z,13.30
2023-05-14T03:17:28.715Z,13.31
2023-05-14T03:19:55.174Z,13.28
2023-05-14T03:22:21.880Z,13.32
2023-05-14T03:24:48.272Z,13.32
2023-05-14T03:27:15.031Z,13.38
2023-05-14T03:29:41.548Z,13.41
2023-05-14T03:32:07.983Z,13.37
2023-05-14T03:34:34.368Z,13.34
2023-05-14T03:37:01.001Z,13.35
2023-05-14T03:39:27.396Z,13.30
2023-05-14T03:41:53.873Z,13.24
2023-05-14T03:44:20.332Z,13.22
2023-05-14T03:46:46.707Z,13.19
2023-05-14T03:49:13.213Z,13.18
2023-05-14T03:51:39.730Z,13.06
2023-05-14T03:54:06.562Z,13.11
2023-05-14T03:56:33.026Z,13.07
2023-05-14T03:58:59.568Z,13.03
2023-05-14T04:01:25.973Z,12.97
2023-05-14T04:03:52.500Z,12.95
2023-05-14T04:06:19.240Z,12.98
2023-05-14T04:08:45.723Z,12.95
2023-05-14T04:11:12.211Z,12.94
2023-05-14T04:13:38.728Z,12.95
2023-05-14T04:16:05.690Z,12.98
2023-05-14T04:18:35.319Z,13.00
2023-05-14T04:21:02.329Z,13.03
2023-05-14T04:23:29.304Z,13.09
2023-05-14T04:25:55.762Z,13.13
2023-05-14T04:28:22.239Z,13.19
2023-05-14T04:30:49.001Z,13.22
2023-05-14T04:33:15.758Z,13.28
2023-05-14T04:35:42.228Z,13.31
2023-05-14T04:38:09.133Z,13.31
2023-05-14T04:40:35.702Z,13.37
2023-05-14T04:43:02.132Z,13.40
2023-05-14T04:45:28.609Z,13.42
2023-05-14T04:47:55.113Z,13.42
2023-05-14T04:50:22.040Z,13.45
2023-05-14T04:52:48.751Z,13.52
2023-05-14T04:55:15.161Z,13.59
2023-05-14T04:57:41.638Z,13.64
2023-05-14T05:00:11.857Z,13.68
2023-05-14T05:02:38.357Z,13.73
2023-05-14T05:05:05.156Z,13.80
2023-05-14T05:07:31.691Z,13.82
2023-05-14T05:09:58.256Z,13.87
2023-05-14T05:12:24.911Z,13.93
2023-05-14T05:14:51.436Z,14.01
2023-05-14T05:17:17.900Z,14.15
2023-05-14T05:19:44.745Z,14.28
2023-05-14T05:22:11.413Z,14.36
2023-05-14T05:24:37.887Z,14.35
2023-05-14T05:27:05.494Z,14.43
2023-05-14T05:29:31.986Z,14.52
2023-05-14T05:31:59.052Z,14.62
2023-05-14T05:34:25.610Z,14.74
2023-05-14T05:36:52.100Z,14.88
2023-05-14T05:39:18.476Z,14.86
2023-05-14T05:41:44.944Z,15.00
2023-05-14T05:44:11.443Z,15.09
2023-05-14T05:46:37.961Z,15.22
2023-05-14T05:49:04.446Z,15.29
2023-05-14T05:51:31.501Z,15.35
2023-05-14T05:53:57.955Z,15.49
2023-05-14T05:56:24.515Z,15.57
2023-05-14T05:58:50.900Z,15.58
2023-05-14T06:01:17.354Z,15.79
2023-05-14T06:03:44.857Z,15.92
2023-05-14T06:06:12.841Z,15.89
2023-05-14T06:08:39.320Z,15.92
2023-05-14T06:11:05.814Z,16.05
2023-05-14T06:13:32.219Z,16.11
2023-05-14T06:15:58.739Z,16.19
2023-05-14T06:18:25.304Z,16.34
2023-05-14T06:20:51.747Z,16.37
2023-05-14T06:23:18.144Z,16.33
2023-05-14T06:25:44.545Z,16.41
2023-05-14T06:28:11.181Z,16.49
2023-05-14T06:30:37.562Z,16.49
2023-05-14T06:33:04.165Z,16.47
2023-05-14T06:35:30.632Z,16.53
2023-05-14T06:37:57.110Z,16.45
2023-05-14T06:40:23.680Z,16.46
2023-05-14T06:42:50.356Z,16.48
2023-05-14T06:45:16.822Z,16.53
2023-05-14T06:47:43.370Z,16.64
2023-05-14T06:50:10.985Z,16.66
2023-05-14T06:52:37.710Z,16.68
2023-05-14T06:55:04.345Z,16.70
2023-05-14T06:57:30.818Z,16.59
2023-05-14T06:59:57.519Z,16.54
2023-05-14T07:02:24.334Z,16.57
2023-05-14T07:04:50.826Z,16.45
2023-05-14T07:07:20.428Z,16.42
2023-05-14T07:09:47.597Z,16.34
2023-05-14T07:12:14.122Z,16.40
2023-05-14T07:14:40.532Z,16.48
2023-05-14T07:17:07.037Z,16.69
2023-05-14T07:19:33.565Z,16.74
2023-05-14T07:22:00.052Z,17.01
2023-05-14T07:24:26.506Z,17.11
2023-05-14T07:26:54.349Z,17.39
2023-05-14T07:29:21.025Z,17.59
2023-05-14T07:31:47.510Z,17.73
2023-05-14T07:34:14.011Z,17.82
2023-05-14T07:36:41.101Z,17.90
2023-05-14T07:39:07.862Z,17.96
2023-05-14T07:41:34.291Z,18.12
2023-05-14T07:44:01.009Z,18.25
2023-05-14T07:46:27.408Z,18.31
2023-05-14T07:48:53.897Z,18.56
2023-05-14T07:51:20.313Z,18.47
2023-05-14T07:53:46.771Z,18.41
2023-05-14T07:56:13.183Z,18.49
2023-05-14T07:58:39.715Z,18.51
2023-05-14T08:01:09.135Z,18.28
2023-05-14T08:03:35.696Z,18.31
2023-05-14T08:06:02.187Z,18.14
2023-05-14T08:08:28.693Z,18.24
2023-05-14T08:10:55.680Z,18.37
2023-05-14T08:13:22.187Z,18.50
2023-05-14T08:15:48.832Z,18.74
2023-05-14T08:18:15.278Z,18.74
2023-05-14T08:20:52.207Z,18.96
2023-05-14T08:23:18.691Z,18.96
2023-05-14T08:25:45.437Z,19.05
2023-05-14T08:28:12.096Z,19.15
2023-05-14T08:30:38.614Z,19.14
2023-05-14T08:33:05.072Z,19.05
2023-05-14T08:35:31.535Z,18.94
2023-05-14T08:37:57.975Z,19.04
2023-05-14T08:40:24.641Z,19.13
2023-05-14T08:42:51.540Z,19.37
2023-05-14T08:45:22.076Z,19.33
2023-05-14T08:47:52.569Z,19.35
2023-05-14T08:50:23.530Z,19.59
2023-05-14T08:52:50.790Z,19.82
2023-05-14T08:55:17.274Z,20.04
2023-05-14T08:57:43.788Z,19.91
2023-05-14T09:00:13.381Z,20.22
2023-05-14T09:02:41.191Z,20.23
2023-05-14T09:05:09.267Z,20.42
2023-05-14T09:07:35.941Z,20.30
2023-05-14T09:10:03.793Z,20.42
2023-05-14T09:12:31.137Z,20.70
2023-05-14T09:14:57.629Z,20.56
2023-05-14T09:17:26.126Z,20.63
2023-05-14T09:19:52.964Z,20.84
2023-05-14T09:22:20.138Z,21.03
2023-05-14T09:24:46.875Z,21.16
2023-05-14T09:27:21.712Z,21.19
2023-05-14T09:29:48.370Z,21.55
2023-05-14T09:32:14.791Z,21.79
2023-05-14T09:34:41.304Z,22.19
2023-05-14T09:37:08.732Z,22.88
2023-05-14T09:39:36.752Z,23.35
2023-05-14T09:42:03.468Z,23.57
2023-05-14T09:44:29.924Z,23.67
2023-05-14T09:46:56.689Z,23.77
2023-05-14T09:49:23.373Z,24.22
2023-05-14T09:51:50.381Z,24.37
2023-05-14T09:54:17.577Z,24.75
2023-05-14T09:56:44.500Z,24.73
2023-05-14T09:59:11.264Z,24.74
2023-05-14T10:01:38.317Z,24.84
2023-05-14T10:04:07.159Z,24.94
2023-05-14T10:06:37.022Z,25.01
2023-05-14T10:09:05.718Z,25.27
2023-05-14T10:11:34.512Z,25.36
2023-05-14T10:14:26.867Z,25.45
2023-05-14T10:16:54.122Z,25.73
2023-05-14T10:19:21.596Z,26.04
2023-05-14T10:21:53.268Z,26.29
2023-05-14T10:24:20.090Z,26.12
2023-05-14T10:26:46.880Z,26.61
2023-05-14T10:29:13.348Z,26.47
2023-05-14T10:31:54.085Z,25.98
2023-05-14T10:34:44.120Z,26.46
2023-05-14T10:37:15.749Z,26.66
2023-05-14T10:39:47.149Z,26.59
2023-05-14T10:42:19.136Z,26.64
2023-05-14T10:44:51.652Z,26.99
2023-05-14T10:47:18.434Z,27.02
2023-05-14T10:49:48.886Z,26.80
2023-05-14T10:52:19.231Z,26.80
2023-05-14T10:54:56.128Z,26.98
2023-05-14T10:57:27.470Z,26.99
2023-05-14T10:59:56.263Z,27.06
2023-05-14T11:02:27.219Z,26.49
2023-05-14T11:05:03.906Z,26.37
2023-05-14T11:07:35.638Z,25.75
2023-05-14T11:10:10.078Z,25.44
2023-05-14T11:12:38.527Z,25.25
2023-05-14T11:15:09.778Z,24.69
2023-05-14T11:17:37.221Z,24.63
2023-05-14T11:20:05.905Z,24.51
2023-05-14T11:22:32.412Z,24.36
2023-05-14T11:24:58.923Z,24.20
2023-05-14T11:27:26.254Z,24.30
2023-05-14T11:29:52.831Z,23.98
2023-05-14T11:32:19.661Z,23.86
2023-05-14T11:34:46.824Z,23.73
2023-05-14T11:37:16.569Z,23.65
2023-05-14T11:39:50.828Z,23.73
2023-05-14T11:42:18.750Z,23.32
2023-05-14T11:44:52.462Z,23.26
2023-05-14T11:47:20.461Z,23.44
2023-05-14T11:49:47.428Z,23.23
2023-05-14T11:52:14.921Z,23.08
2023-05-14T11:54:42.518Z,23.22
2023-05-14T11:57:21.977Z,23.03
2023-05-14T11:59:49.797Z,23.13
2023-05-14T12:02:18.462Z,23.32
2023-05-14T12:04:50.673Z,23.35
2023-05-14T12:07:17.242Z,23.32
2023-05-14T12:09:49.701Z,23.17
2023-05-14T12:12:21.283Z,23.42
2023-05-14T12:14:48.633Z,23.61
2023-05-14T12:17:17.309Z,23.71
2023-05-14T12:19:45.008Z,23.73
2023-05-14T12:22:12.261Z,23.87
2023-05-14T12:24:39.286Z,23.94
2023-05-14T12:27:06.977Z,24.06
2023-05-14T12:29:38.800Z,24.58
2023-05-14T12:32:09.677Z,24.84
2023-05-14T12:34:37.653Z,25.23
2023-05-14T12:37:04.977Z,25.62
2023-05-14T12:39:33.783Z,25.90
2023-05-14T12:42:00.464Z,26.08
2023-05-14T12:44:27.047Z,26.41
2023-05-14T12:46:53.690Z,26.53
2023-05-14T12:49:20.290Z,27.11
2023-05-14T12:51:46.996Z,27.61
2023-05-14T12:54:15.708Z,27.80
2023-05-14T12:56:42.209Z,28.08
2023-05-14T12:59:09.595Z,28.02
2023-05-14T13:01:37.588Z,27.87
2023-05-14T13:04:05.397Z,27.50
2023-05-14T13:06:32.305Z,27.67
2023-05-14T13:09:00.192Z,27.68
2023-05-14T13:11:29.508Z,28.24
2023-05-14T13:13:55.980Z,28.14
2023-05-14T13:16:22.450Z,28.08
2023-05-14T13:18:48.950Z,27.71
2023-05-14T13:21:15.427Z,28.00
2023-05-14T13:23:41.919Z,27.83
2023-05-14T13:26:08.400Z,27.44
2023-05-14T13:28:34.862Z,27.40
2023-05-14T13:31:05.945Z,27.23
2023-05-14T13:33:34.159Z,26.98
2023-05-14T13:36:00.732Z,26.95
2023-05-14T13:38:27.212Z,26.99
2023-05-14T13:40:54.273Z,27.06
2023-05-14T13:43:20.955Z,27.04
2023-05-14T13:45:47.427Z,26.72
2023-05-14T13:48:14.075Z,26.96
2023-05-14T13:50:40.534Z,27.02
2023-05-14T13:53:06.968Z,27.14
2023-05-14T13:55:33.384Z,27.33
2023-05-14T13:58:01.854Z,27.15
2023-05-14T14:00:28.309Z,27.38
2023-05-14T14:02:54.792Z,27.09
2023-05-14T14:05:21.500Z,27.09
2023-05-14T14:07:49.724Z,27.52
2023-05-14T14:10:17.055Z,27.61
2023-05-14T14:12:43.514Z,27.34
2023-05-14T14:15:10.617Z,27.36
2023-05-14T14:17:37.949Z,27.20
2023-05-14T14:20:05.860Z,27.28
2023-05-14T14:22:32.493Z,26.91
2023-05-14T14:24:59.042Z,26.90
2023-05-14T14:27:25.995Z,27.09
2023-05-14T14:29:54.075Z,27.01
2023-05-14T14:32:23.677Z,26.94
2023-05-14T14:34:50.172Z,27.13
2023-05-14T14:37:16.610Z,27.42
2023-05-14T14:39:43.027Z,27.24
2023-05-14T14:42:09.460Z,27.42
2023-05-14T14:44:35.905Z,27.55
2023-05-14T14:47:02.360Z,27.81
2023-05-14T14:49:28.956Z,27.99
2023-05-14T14:51:55.432Z,27.64
2023-05-14T14:54:21.929Z,27.89
2023-05-14T14:56:52.295Z,27.37
2023-05-14T14:59:18.731Z,27.16
2023-05-14T15:01:45.376Z,27.08
2023-05-14T15:04:11.830Z,26.96
2023-05-14T15:06:38.301Z,27.20
2023-05-14T15:09:04.740Z,27.29
2023-05-14T15:11:31.271Z,27.22
2023-05-14T15:13:57.727Z,27.27
2023-05-14T15:16:24.181Z,27.24
2023-05-14T15:18:50.849Z,26.97
2023-05-14T15:21:17.338Z,27.00
2023-05-14T15:23:43.795Z,27.20
2023-05-14T15:26:10.301Z,26.97
2023-05-14T15:28:36.825Z,26.57
2023-05-14T15:31:03.429Z,26.41
2023-05-14T15:33:29.856Z,26.31
2023-05-14T15:35:56.314Z,26.17
2023-05-14T15:38:22.736Z,25.97
2023-05-14T15:40:50.832Z,25.75
2023-05-14T15:43:17.320Z,25.66
2023-05-14T15:45:44.592Z,25.77
2023-05-14T15:48:11.176Z,25.68
2023-05-14T15:50:38.469Z,25.63
2023-05-14T15:53:04.967Z,25.55
2023-05-14T15:55:31.392Z,25.63
2023-05-14T15:57:57.912Z,25.53
2023-05-14T16:00:24.863Z,25.57
2023-05-14T16:02:52.110Z,25.43
2023-05-14T16:05:19.022Z,25.35
2023-05-14T16:07:45.510Z,25.19
2023-05-14T16:10:11.933Z,25.12
2023-05-14T16:12:38.446Z,24.86
2023-05-14T16:15:06.125Z,25.15
2023-05-14T16:17:32.810Z,25.10
2023-05-14T16:20:04.689Z,25.19
2023-05-14T16:22:32.681Z,25.18
2023-05-14T16:25:00.614Z,25.15
2023-05-14T16:27:28.414Z,24.45
2023-05-14T16:29:54.964Z,24.62
2023-05-14T16:32:22.732Z,24.42
2023-05-14T16:34:51.732Z,24.14
2023-05-14T16:37:21.585Z,23.53
2023-05-14T16:39:48.560Z,23.52
2023-05-14T16:42:14.990Z,23.50
2023-05-14T16:44:41.445Z,23.33
2023-05-14T16:47:07.981Z,23.36
2023-05-14T16:49:34.401Z,23.25
2023-05-14T16:52:00.969Z,23.08
2023-05-14T16:54:27.415Z,22.86
2023-05-14T16:56:53.844Z,22.78
2023-05-14T16:59:20.322Z,22.60
2023-05-14T17:01:48.044Z,22.19
2023-05-14T17:04:15.048Z,22.29
2023-05-14T17:06:41.510Z,22.22
2023-05-14T17:09:07.912Z,22.17
2023-05-14T17:11:34.318Z,22.08
2023-05-14T17:14:00.750Z,22.05
2023-05-14T17:16:27.360Z,22.10
2023-05-14T17:18:53.856Z,21.95
2023-05-14T17:21:20.305Z,21.81
2023-05-14T17:23:46.737Z,21.51
2023-05-14T17:26:13.145Z,21.22
2023-05-14T17:28:39.580Z,21.17
2023-05-14T17:31:06.366Z,21.11
2023-05-14T17:33:32.972Z,20.98
2023-05-14T17:36:00.333Z,20.97
2023-05-14T17:38:26.882Z,20.87
2023-05-14T17:40:53.583Z,20.80
2023-05-14T17:43:20.057Z,20.41
2023-05-14T17:45:53.822Z,20.37
2023-05-14T17:48:22.079Z,20.34
2023-05-14T17:50:48.502Z,20.20
2023-05-14T17:53:14.923Z,20.16
2023-05-14T17:55:43.598Z,20.00
2023-05-14T17:58:15.281Z,19.90
2023-05-14T18:00:42.346Z,19.87
2023-05-14T18:03:09.050Z,19.85
2023-05-14T18:05:35.781Z,19.76
2023-05-14T18:08:02.408Z,19.72
2023-05-14T18:10:31.811Z,19.56
2023-05-14T18:12:58.235Z,19.36
2023-05-14T18:15:25.860Z,19.35
2023-05-14T18:17:52.772Z,19.14
2023-05-14T18:20:19.537Z,19.11
2023-05-14T18:22:46.097Z,18.97
2023-05-14T18:25:12.956Z,18.96
2023-05-14T18:27:44.307Z,18.85
2023-05-14T18:30:15.250Z,18.71
2023-05-14T18:32:43.712Z,18.72
2023-05-14T18:35:11.345Z,18.71
2023-05-14T18:37:38.227Z,18.55
2023-05-14T18:40:05.211Z,18.50
2023-05-14T18:42:31.706Z,18.48
2023-05-14T18:44:58.174Z,18.38
2023-05-14T18:47:24.721Z,18.32
2023-05-14T18:49:55.016Z,18.26
2023-05-14T18:52:24.733Z,18.21
2023-05-14T18:54:51.189Z,18.10
2023-05-14T18:57:17.589Z,17.99
2023-05-14T18:59:44.050Z,17.88
2023-05-14T19:02:10.829Z,17.83
2023-05-14T19:04:50.713Z,17.71
2023-05-14T19:07:18.781Z,17.60
2023-05-14T19:09:45.209Z,17.58
2023-05-14T19:12:11.718Z,17.50
2023-05-14T19:14:38.206Z,17.37
2023-05-14T19:17:05.444Z,17.20
2023-05-14T19:19:31.902Z,17.11
2023-05-14T19:21:58.560Z,17.06
2023-05-14T19:24:24.992Z,16.97
2023-05-14T19:26:51.455Z,16.86
2023-05-14T19:29:17.886Z,16.84
2023-05-14T19:31:44.375Z,16.83
2023-05-14T19:34:10.974Z,16.84
2023-05-14T19:36:37.439Z,16.82
2023-05-14T19:39:04.098Z,16.78
2023-05-14T19:41:30.690Z,16.74
2023-05-14T19:43:57.163Z,16.71
2023-05-14T19:46:23.684Z,16.67
2023-05-14T19:48:50.124Z,16.55
2023-05-14T19:51:16.697Z,16.56
2023-05-14T19:53:43.192Z,16.41
2023-05-14T19:56:09.665Z,16.40
2023-05-14T19:58:36.153Z,16.37
2023-05-14T20:01:02.783Z,16.36
2023-05-14T20:03:29.850Z,16.35
2023-05-14T20:05:56.487Z,16.36
2023-05-14T20:08:22.918Z,16.17
2023-05-14T20:10:49.543Z,16.16
2023-05-14T20:13:16.162Z,16.08
2023-05-14T20:15:45.504Z,15.90
2023-05-14T20:18:12.151Z,15.93
2023-05-14T20:20:39.879Z,15.87
2023-05-14T20:23:06.560Z,15.91
2023-05-14T20:25:33.259Z,15.89
2023-05-14T20:28:02.799Z,15.88
2023-05-14T20:30:29.534Z,15.78
2023-05-14T20:32:56.417Z,15.79
2023-05-14T20:35:23.196Z,15.73
2023-05-14T20:37:50.029Z,15.58
2023-05-14T20:40:16.580Z,15.64
2023-05-14T20:42:43.250Z,15.67
2023-05-14T20:45:10.665Z,15.66
2023-05-14T20:47:37.418Z,15.67
2023-05-14T20:50:04.657Z,15.67
2023-05-14T20:52:31.332Z,15.67
2023-05-14T20:55:00.799Z,15.65
2023-05-14T20:57:28.396Z,15.60
2023-05-14T20:59:54.841Z,15.51
2023-05-14T21:02:34.864Z,15.41
2023-05-14T21:05:01.552Z,15.39
2023-05-14T21:07:28.892Z,15.43
2023-05-14T21:10:09.875Z,15.42
2023-05-14T21:12:36.427Z,15.47
2023-05-14T21:15:03.097Z,15.43
2023-05-14T21:17:29.612Z,15.51
2023-05-14T21:19:56.068Z,15.36
2023-05-14T21:22:22.717Z,15.35
2023-05-14T21:24:50.181Z,15.31
2023-05-14T21:27:16.906Z,15.26
2023-05-14T21:29:46.159Z,15.29
2023-05-14T21:32:12.554Z,15.23
2023-05-14T21:34:38.939Z,15.19
2023-05-14T21:37:05.574Z,15.09
2023-05-14T21:39:32.067Z,15.08
2023-05-14T21:41:58.458Z,15.00
2023-05-14T21:44:24.847Z,14.89
2023-05-14T21:46:51.302Z,14.83
2023-05-14T21:49:17.692Z,14.84
2023-05-14T21:51:44.124Z,14.79
2023-05-14T21:54:10.618Z,14.84
2023-05-14T21:56:37.206Z,14.84
2023-05-14T21:59:03.655Z,14.84
2023-05-14T22:01:30.187Z,14.84
2023-05-14T22:03:58.039Z,14.84
2023-05-14T22:06:24.758Z,14.85
2023-05-14T22:08:51.255Z,14.84
2023-05-14T22:11:17.679Z,14.87
2023-05-14T22:13:44.108Z,14.83
2023-05-14T22:16:13.401Z,14.75
2023-05-14T22:18:40.652Z,14.77
2023-05-14T22:21:07.111Z,14.73
2023-05-14T22:23:33.563Z,14.71
2023-05-14T22:26:00.028Z,14.76
2023-05-14T22:28:26.510Z,14.78
2023-05-14T22:30:53.053Z,14.58
2023-05-14T22:33:19.532Z,14.65
2023-05-14T22:35:46.193Z,14.62
2023-05-14T22:38:13.573Z,14.72
2023-05-14T22:40:40.056Z,14.73
2023-05-14T22:43:06.458Z,14.69
2023-05-14T22:45:32.903Z,14.62
2023-05-14T22:47:59.491Z,14.64
2023-05-14T22:50:26.182Z,14.62
2023-05-14T22:52:52.584Z,14.65
2023-05-14T22:55:19.099Z,14.65
2023-05-14T22:57:45.652Z,14.66
2023-05-14T23:00:12.783Z,14.64
2023-05-14T23:02:39.365Z,14.58
2023-05-14T23:05:07.779Z,14.57
2023-05-14T23:07:34.605Z,14.58
2023-05-14T23:10:01.055Z,14.56
2023-05-14T23:12:27.449Z,14.51
2023-05-14T23:14:53.894Z,14.50
2023-05-14T23:17:20.461Z,14.58
2023-05-14T23:19:46.976Z,14.52
2023-05-14T23:22:13.447Z,14.52
2023-05-14T23:24:39.918Z,14.50
2023-05-14T23:27:06.456Z,14.47
2023-05-14T23:29:32.931Z,14.48
2023-05-14T23:31:59.448Z,14.50
2023-05-14T23:34:25.947Z,14.48
2023-05-14T23:36:52.781Z,14.42
2023-05-14T23:39:19.256Z,14.38
2023-05-14T23:41:45.935Z,14.38
2023-05-14T23:44:12.631Z,14.33
2023-05-14T23:46:39.088Z,14.20
2023-05-14T23:49:05.722Z,14.19
2023-05-14T23:51:32.178Z,14.10
2023-05-14T23:53:58.813Z,14.06
2023-05-14T23:56:26.281Z,14.05
2023-05-14T23:58:52.816Z,14.06
